PAHOPAMD

Guest
Details From PAHO - HOMER
To PAMD - MIDDLETON ISLAND
Flight Number -
Tags generated
Created
Modified
Stats Distance 162 nm / 300 km
Max Altitude 17,300 ft / 5,273 m
Waypoints 3
Social Downloads 0
Likes 0
Share VATSIM

Download

Looking for another format? Having issues loading an existing format? Contact us
Advertisement - Login to hide

Notes

Basic altitude profile: - Ascent Rate: 2500ft/min - Ascent Speed: 250kts - Cruise Altitude: 10000ft - Cruise Speed: 170kts - Descent Rate: 1500ft/min - Descent Speed: 250kts Options: - Use NATs: yes - Use PACOTS: yes - Use low airways: yes - Use high airways: yes

Route

PAHO WUXAN PAMD

ID Type Via Altitude Latitude Longitude Leg Dist Tot Dist Heading (true) Name
O PAHO APT - 0 ft / 0 m 59.64555˚ -151.47659˚ - 0 nm - HOMER
WUXAN FIX - 17,300 ft / 5,273 m 59.88333˚ -149.00000˚ 76 nm 76 nm 78° / 80° -
O PAMD APT - 0 ft / 0 m 59.45114˚ -146.30678˚ 85 nm 161 nm 106° / 109° MIDDLETON ISLAND

Altitude Profile

Advertisement - Login to hide

PAHO

Details ICAO PAHO (HOM)
Name HOMER
Region USA (Alaska)
Timezone America/Anchorage (UTC-9.0)
Stats Elevation 84 ft / 26 m (AMSL)
Location 59.645547° -151.476589°
Runways 1
Magnetic Variation 15.492° E

METAR

PAHO 161053Z AUTO 14006KT 10SM FEW027 OVC034 04/00 A2918 RMK AO2 RAB08E51 SLP882 P0000 T00440000 TSNO

Decode

TAF

PAHO 160542Z 1606/1706 12008KT P6SM VCSH BKN060 TEMPO 1608/1610 22015KT -SHRA BKN035 FM161000 22015KT P6SM -SHRA BKN035 FM162100 22010KT P6SM VCSH BKN035

Decode

Departure Runways

ID Width Length Bearing (true) Bearing (mag) Surface Threshold Offset Overrun Length
03 151 ft / 46 m 6,706 ft / 2,044 m 54.97° 39.48° Asphalt 801 ft / 244 m 0 ft / 0 m
21 151 ft / 46 m 6,706 ft / 2,044 m 234.99° 219.50° Asphalt 0 ft / 0 m 0 ft / 0 m

PAMD

Details ICAO PAMD
Name MIDDLETON ISLAND
Region USA (Alaska)
Timezone America/Anchorage (UTC-9.0)
Stats Elevation 100 ft / 30 m (AMSL)
Location 59.451139° -146.306781°
Runways 2
Magnetic Variation 17.105° E

METAR

PAMD 161006Z AUTO 26006KT 7SM FEW016 OVC032 05/04 A2930 RMK AO2

Decode

TAF

Not found

Destination Runways

ID Width Length Bearing (true) Bearing (mag) Surface Threshold Offset Overrun Length
01 115 ft / 35 m 3,151 ft / 960 m 34.26° 17.16° Gravel 0 ft / 0 m 0 ft / 0 m
12 125 ft / 38 m 1,497 ft / 456 m 149.75° 132.65° Gravel 0 ft / 0 m 0 ft / 0 m
19 115 ft / 35 m 3,151 ft / 960 m 214.27° 197.17° Gravel 0 ft / 0 m 0 ft / 0 m
30 125 ft / 38 m 1,497 ft / 456 m 329.75° 312.65° Gravel 0 ft / 0 m 0 ft / 0 m

Popular Alternatives